sensor_id;sensor_type;location;lat;lon;timestamp;P1;durP1;ratioP1;P2;durP2;ratioP2
73515;SDS011;61763;51.416;5.442;2022-10-16T00:01:18;4.75;;;2.03;;
73515;SDS011;61763;51.416;5.442;2022-10-16T00:03:45;9.30;;;2.30;;
73515;SDS011;61763;51.416;5.442;2022-10-16T00:06:12;6.20;;;2.05;;
73515;SDS011;61763;51.416;5.442;2022-10-16T00:08:38;6.38;;;1.77;;
73515;SDS011;61763;51.416;5.442;2022-10-16T00:11:11;9.25;;;2.08;;
73515;SDS011;61763;51.416;5.442;2022-10-16T00:13:39;5.72;;;2.05;;
73515;SDS011;61763;51.416;5.442;2022-10-16T00:16:06;4.47;;;2.65;;
73515;SDS011;61763;51.416;5.442;2022-10-16T00:18:33;5.97;;;1.63;;
73515;SDS011;61763;51.416;5.442;2022-10-16T00:21:04;6.20;;;2.15;;
73515;SDS011;61763;51.416;5.442;2022-10-16T00:25:58;5.20;;;1.52;;
73515;SDS011;61763;51.416;5.442;2022-10-16T00:28:26;7.10;;;2.15;;
73515;SDS011;61763;51.416;5.442;2022-10-16T00:30:52;4.90;;;2.25;;
73515;SDS011;61763;51.416;5.442;2022-10-16T00:33:17;5.30;;;2.33;;
73515;SDS011;61763;51.416;5.442;2022-10-16T00:35:43;6.25;;;2.22;;
73515;SDS011;61763;51.416;5.442;2022-10-16T00:38:09;5.30;;;2.47;;
73515;SDS011;61763;51.416;5.442;2022-10-16T00:40:34;3.88;;;1.67;;
73515;SDS011;61763;51.416;5.442;2022-10-16T00:42:59;5.82;;;1.90;;
73515;SDS011;61763;51.416;5.442;2022-10-16T00:45:25;7.53;;;2.05;;
73515;SDS011;61763;51.416;5.442;2022-10-16T00:47:50;4.43;;;2.10;;
73515;SDS011;61763;51.416;5.442;2022-10-16T00:50:22;9.50;;;1.80;;
73515;SDS011;61763;51.416;5.442;2022-10-16T00:52:53;4.05;;;1.95;;
73515;SDS011;61763;51.416;5.442;2022-10-16T00:55:20;4.28;;;2.30;;
73515;SDS011;61763;51.416;5.442;2022-10-16T00:57:45;4.72;;;2.00;;
73515;SDS011;61763;51.416;5.442;2022-10-16T01:00:12;5.70;;;2.28;;
73515;SDS011;61763;51.416;5.442;2022-10-16T01:02:41;3.45;;;1.35;;
73515;SDS011;61763;51.416;5.442;2022-10-16T01:05:07;5.13;;;1.92;;
73515;SDS011;61763;51.416;5.442;2022-10-16T01:11:06;4.95;;;1.55;;
73515;SDS011;61763;51.416;5.442;2022-10-16T01:13:41;6.47;;;1.85;;
73515;SDS011;61763;51.416;5.442;2022-10-16T01:16:13;6.40;;;1.55;;
73515;SDS011;61763;51.416;5.442;2022-10-16T01:18:45;4.47;;;2.03;;
73515;SDS011;61763;51.416;5.442;2022-10-16T01:21:26;4.03;;;1.92;;
73515;SDS011;61763;51.416;5.442;2022-10-16T01:29:36;4.82;;;1.98;;
73515;SDS011;61763;51.416;5.442;2022-10-16T01:32:18;5.18;;;1.70;;
73515;SDS011;61763;51.416;5.442;2022-10-16T01:34:51;3.88;;;2.13;;
73515;SDS011;61763;51.416;5.442;2022-10-16T01:37:26;7.32;;;1.52;;
73515;SDS011;61763;51.416;5.442;2022-10-16T01:39:58;4.68;;;1.83;;
73515;SDS011;61763;51.416;5.442;2022-10-16T01:42:31;3.10;;;1.40;;
73515;SDS011;61763;51.416;5.442;2022-10-16T01:47:27;4.82;;;1.45;;
73515;SDS011;61763;51.416;5.442;2022-10-16T01:49:55;6.30;;;2.03;;
73515;SDS011;61763;51.416;5.442;2022-10-16T01:52:25;4.07;;;2.08;;
73515;SDS011;61763;51.416;5.442;2022-10-16T01:54:53;3.63;;;1.52;;
73515;SDS011;61763;51.416;5.442;2022-10-16T01:57:22;5.20;;;1.30;;
73515;SDS011;61763;51.416;5.442;2022-10-16T01:59:51;3.85;;;1.52;;
73515;SDS011;61763;51.416;5.442;2022-10-16T02:02:21;3.53;;;1.52;;
73515;SDS011;61763;51.416;5.442;2022-10-16T02:04:56;4.82;;;1.30;;
73515;SDS011;61763;51.416;5.442;2022-10-16T02:07:41;3.85;;;1.40;;
73515;SDS011;61763;51.416;5.442;2022-10-16T02:10:07;2.88;;;1.15;;
73515;SDS011;61763;51.416;5.442;2022-10-16T02:12:35;3.22;;;1.38;;
73515;SDS011;61763;51.416;5.442;2022-10-16T02:15:04;4.57;;;1.30;;
73515;SDS011;61763;51.416;5.442;2022-10-16T02:17:30;3.47;;;1.10;;
73515;SDS011;61763;51.416;5.442;2022-10-16T02:19:56;3.33;;;1.63;;
73515;SDS011;61763;51.416;5.442;2022-10-16T02:25:08;4.47;;;1.27;;
73515;SDS011;61763;51.416;5.442;2022-10-16T02:27:38;3.88;;;1.30;;
73515;SDS011;61763;51.416;5.442;2022-10-16T02:32:58;2.78;;;1.10;;
73515;SDS011;61763;51.416;5.442;2022-10-16T02:35:26;3.80;;;1.30;;
73515;SDS011;61763;51.416;5.442;2022-10-16T02:37:52;3.05;;;1.15;;
73515;SDS011;61763;51.416;5.442;2022-10-16T02:40:20;4.07;;;1.23;;
73515;SDS011;61763;51.416;5.442;2022-10-16T02:42:49;2.80;;;1.42;;
73515;SDS011;61763;51.416;5.442;2022-10-16T02:45:16;3.38;;;1.20;;
73515;SDS011;61763;51.416;5.442;2022-10-16T02:47:41;5.25;;;1.45;;
73515;SDS011;61763;51.416;5.442;2022-10-16T02:50:07;5.65;;;1.77;;
73515;SDS011;61763;51.416;5.442;2022-10-16T02:52:32;3.03;;;1.27;;
73515;SDS011;61763;51.416;5.442;2022-10-16T02:54:58;3.70;;;1.20;;
73515;SDS011;61763;51.416;5.442;2022-10-16T02:57:23;5.05;;;1.05;;
73515;SDS011;61763;51.416;5.442;2022-10-16T02:59:49;6.07;;;1.60;;
73515;SDS011;61763;51.416;5.442;2022-10-16T03:02:14;5.50;;;2.00;;
73515;SDS011;61763;51.416;5.442;2022-10-16T03:04:39;4.43;;;1.90;;
73515;SDS011;61763;51.416;5.442;2022-10-16T03:07:05;5.20;;;1.60;;
73515;SDS011;61763;51.416;5.442;2022-10-16T03:09:31;6.50;;;1.70;;
73515;SDS011;61763;51.416;5.442;2022-10-16T03:11:56;5.35;;;1.52;;
73515;SDS011;61763;51.416;5.442;2022-10-16T03:14:22;4.85;;;1.63;;
73515;SDS011;61763;51.416;5.442;2022-10-16T03:16:47;4.03;;;1.77;;
73515;SDS011;61763;51.416;5.442;2022-10-16T03:19:12;4.50;;;2.17;;
73515;SDS011;61763;51.416;5.442;2022-10-16T03:21:38;3.35;;;1.55;;
73515;SDS011;61763;51.416;5.442;2022-10-16T03:24:03;3.42;;;1.55;;
73515;SDS011;61763;51.416;5.442;2022-10-16T03:26:29;3.13;;;1.38;;
73515;SDS011;61763;51.416;5.442;2022-10-16T03:28:54;5.90;;;1.60;;
73515;SDS011;61763;51.416;5.442;2022-10-16T03:31:19;6.20;;;1.60;;
73515;SDS011;61763;51.416;5.442;2022-10-16T03:33:45;3.28;;;1.75;;
73515;SDS011;61763;51.416;5.442;2022-10-16T03:36:10;5.03;;;1.50;;
73515;SDS011;61763;51.416;5.442;2022-10-16T03:38:36;3.97;;;1.02;;
73515;SDS011;61763;51.416;5.442;2022-10-16T03:41:01;2.40;;;0.95;;
73515;SDS011;61763;51.416;5.442;2022-10-16T03:43:26;4.47;;;1.38;;
73515;SDS011;61763;51.416;5.442;2022-10-16T03:45:52;3.13;;;1.55;;
73515;SDS011;61763;51.416;5.442;2022-10-16T03:48:18;3.10;;;1.15;;
73515;SDS011;61763;51.416;5.442;2022-10-16T03:50:44;3.95;;;1.27;;
73515;SDS011;61763;51.416;5.442;2022-10-16T03:53:11;3.92;;;1.33;;
73515;SDS011;61763;51.416;5.442;2022-10-16T03:55:37;3.33;;;1.13;;
73515;SDS011;61763;51.416;5.442;2022-10-16T03:58:02;3.60;;;1.23;;
73515;SDS011;61763;51.416;5.442;2022-10-16T04:00:27;4.00;;;1.30;;
73515;SDS011;61763;51.416;5.442;2022-10-16T04:02:53;2.65;;;0.98;;
73515;SDS011;61763;51.416;5.442;2022-10-16T04:05:19;3.22;;;1.05;;
73515;SDS011;61763;51.416;5.442;2022-10-16T04:07:44;5.78;;;1.23;;
73515;SDS011;61763;51.416;5.442;2022-10-16T04:10:10;5.97;;;1.45;;
73515;SDS011;61763;51.416;5.442;2022-10-16T04:12:35;5.82;;;1.30;;
73515;SDS011;61763;51.416;5.442;2022-10-16T04:15:01;4.20;;;1.05;;
73515;SDS011;61763;51.416;5.442;2022-10-16T04:17:27;5.57;;;1.33;;
73515;SDS011;61763;51.416;5.442;2022-10-16T04:19:52;5.57;;;1.40;;
73515;SDS011;61763;51.416;5.442;2022-10-16T04:22:17;4.65;;;1.38;;
73515;SDS011;61763;51.416;5.442;2022-10-16T04:24:43;6.30;;;1.45;;
73515;SDS011;61763;51.416;5.442;2022-10-16T04:27:08;4.95;;;1.52;;
73515;SDS011;61763;51.416;5.442;2022-10-16T04:29:34;4.10;;;1.60;;
73515;SDS011;61763;51.416;5.442;2022-10-16T04:31:59;6.38;;;1.67;;
73515;SDS011;61763;51.416;5.442;2022-10-16T04:34:24;6.47;;;1.77;;
73515;SDS011;61763;51.416;5.442;2022-10-16T04:36:50;4.35;;;1.73;;
73515;SDS011;61763;51.416;5.442;2022-10-16T04:39:15;6.68;;;1.58;;
73515;SDS011;61763;51.416;5.442;2022-10-16T04:41:41;3.60;;;1.33;;
73515;SDS011;61763;51.416;5.442;2022-10-16T04:44:06;4.88;;;1.35;;
73515;SDS011;61763;51.416;5.442;2022-10-16T04:46:32;6.00;;;1.92;;
73515;SDS011;61763;51.416;5.442;2022-10-16T04:48:57;4.65;;;1.42;;
73515;SDS011;61763;51.416;5.442;2022-10-16T04:51:23;5.22;;;1.45;;
73515;SDS011;61763;51.416;5.442;2022-10-16T04:53:48;5.80;;;1.38;;
73515;SDS011;61763;51.416;5.442;2022-10-16T04:56:13;4.38;;;1.42;;
73515;SDS011;61763;51.416;5.442;2022-10-16T04:58:40;6.57;;;2.05;;
73515;SDS011;61763;51.416;5.442;2022-10-16T05:01:05;6.03;;;1.65;;
73515;SDS011;61763;51.416;5.442;2022-10-16T05:03:31;4.15;;;1.40;;
73515;SDS011;61763;51.416;5.442;2022-10-16T05:05:56;4.43;;;1.40;;
73515;SDS011;61763;51.416;5.442;2022-10-16T05:08:21;6.60;;;1.52;;
73515;SDS011;61763;51.416;5.442;2022-10-16T05:10:47;4.78;;;1.40;;
73515;SDS011;61763;51.416;5.442;2022-10-16T05:13:12;5.18;;;1.52;;
73515;SDS011;61763;51.416;5.442;2022-10-16T05:15:38;4.95;;;1.42;;
73515;SDS011;61763;51.416;5.442;2022-10-16T05:18:03;5.38;;;1.20;;
73515;SDS011;61763;51.416;5.442;2022-10-16T05:20:29;7.22;;;1.38;;
73515;SDS011;61763;51.416;5.442;2022-10-16T05:22:54;3.65;;;1.52;;
73515;SDS011;61763;51.416;5.442;2022-10-16T05:25:19;5.03;;;1.45;;
73515;SDS011;61763;51.416;5.442;2022-10-16T05:27:48;4.90;;;1.38;;
73515;SDS011;61763;51.416;5.442;2022-10-16T05:30:14;3.63;;;1.02;;
73515;SDS011;61763;51.416;5.442;2022-10-16T05:32:40;3.50;;;1.15;;
73515;SDS011;61763;51.416;5.442;2022-10-16T05:35:05;3.30;;;1.13;;
73515;SDS011;61763;51.416;5.442;2022-10-16T05:37:31;6.22;;;1.65;;
73515;SDS011;61763;51.416;5.442;2022-10-16T05:39:56;4.45;;;1.70;;
73515;SDS011;61763;51.416;5.442;2022-10-16T05:42:22;4.57;;;1.58;;
73515;SDS011;61763;51.416;5.442;2022-10-16T05:44:47;5.10;;;1.42;;
73515;SDS011;61763;51.416;5.442;2022-10-16T05:47:12;6.43;;;1.88;;
73515;SDS011;61763;51.416;5.442;2022-10-16T05:49:39;6.68;;;1.70;;
73515;SDS011;61763;51.416;5.442;2022-10-16T05:52:04;6.35;;;1.73;;
73515;SDS011;61763;51.416;5.442;2022-10-16T05:54:30;7.88;;;1.58;;
73515;SDS011;61763;51.416;5.442;2022-10-16T05:56:55;5.10;;;1.88;;
73515;SDS011;61763;51.416;5.442;2022-10-16T05:59:20;6.13;;;1.88;;
73515;SDS011;61763;51.416;5.442;2022-10-16T06:01:45;7.25;;;1.95;;
73515;SDS011;61763;51.416;5.442;2022-10-16T06:04:11;4.35;;;2.10;;
73515;SDS011;61763;51.416;5.442;2022-10-16T06:06:36;7.72;;;1.90;;
73515;SDS011;61763;51.416;5.442;2022-10-16T06:09:02;4.45;;;2.03;;
73515;SDS011;61763;51.416;5.442;2022-10-16T06:11:28;6.32;;;1.85;;
73515;SDS011;61763;51.416;5.442;2022-10-16T06:16:22;4.50;;;1.90;;
73515;SDS011;61763;51.416;5.442;2022-10-16T06:18:50;5.45;;;2.08;;
73515;SDS011;61763;51.416;5.442;2022-10-16T06:21:17;4.07;;;1.95;;
73515;SDS011;61763;51.416;5.442;2022-10-16T06:23:49;4.00;;;1.90;;
73515;SDS011;61763;51.416;5.442;2022-10-16T06:26:18;4.95;;;2.10;;
73515;SDS011;61763;51.416;5.442;2022-10-16T06:28:44;5.95;;;2.65;;
73515;SDS011;61763;51.416;5.442;2022-10-16T06:31:10;8.38;;;2.83;;
73515;SDS011;61763;51.416;5.442;2022-10-16T06:33:36;5.32;;;2.20;;
73515;SDS011;61763;51.416;5.442;2022-10-16T06:36:07;4.45;;;2.30;;
73515;SDS011;61763;51.416;5.442;2022-10-16T06:38:34;5.57;;;2.45;;
73515;SDS011;61763;51.416;5.442;2022-10-16T06:41:00;7.63;;;2.88;;
73515;SDS011;61763;51.416;5.442;2022-10-16T06:43:26;6.25;;;2.30;;
73515;SDS011;61763;51.416;5.442;2022-10-16T06:45:55;8.98;;;3.15;;
73515;SDS011;61763;51.416;5.442;2022-10-16T06:48:22;6.38;;;2.25;;
73515;SDS011;61763;51.416;5.442;2022-10-16T06:51:01;5.40;;;2.25;;
73515;SDS011;61763;51.416;5.442;2022-10-16T06:53:38;6.03;;;2.05;;
73515;SDS011;61763;51.416;5.442;2022-10-16T06:56:12;6.93;;;2.70;;
73515;SDS011;61763;51.416;5.442;2022-10-16T06:58:37;6.07;;;2.95;;
73515;SDS011;61763;51.416;5.442;2022-10-16T07:01:03;6.95;;;2.80;;
73515;SDS011;61763;51.416;5.442;2022-10-16T07:03:30;4.95;;;2.65;;
73515;SDS011;61763;51.416;5.442;2022-10-16T07:05:55;7.35;;;2.42;;
73515;SDS011;61763;51.416;5.442;2022-10-16T07:08:21;8.55;;;3.08;;
73515;SDS011;61763;51.416;5.442;2022-10-16T07:10:47;4.82;;;2.22;;
73515;SDS011;61763;51.416;5.442;2022-10-16T07:13:12;6.50;;;2.40;;
73515;SDS011;61763;51.416;5.442;2022-10-16T07:15:40;7.10;;;2.75;;
73515;SDS011;61763;51.416;5.442;2022-10-16T07:18:06;6.15;;;2.90;;
73515;SDS011;61763;51.416;5.442;2022-10-16T07:20:32;7.63;;;2.35;;
73515;SDS011;61763;51.416;5.442;2022-10-16T07:22:58;4.40;;;1.92;;
73515;SDS011;61763;51.416;5.442;2022-10-16T07:25:23;5.22;;;1.90;;
73515;SDS011;61763;51.416;5.442;2022-10-16T07:27:49;6.70;;;2.00;;
73515;SDS011;61763;51.416;5.442;2022-10-16T07:30:14;8.25;;;2.47;;
73515;SDS011;61763;51.416;5.442;2022-10-16T07:32:39;6.68;;;1.85;;
73515;SDS011;61763;51.416;5.442;2022-10-16T07:35:05;4.43;;;1.85;;
73515;SDS011;61763;51.416;5.442;2022-10-16T07:37:31;8.68;;;2.08;;
73515;SDS011;61763;51.416;5.442;2022-10-16T07:39:56;4.90;;;1.63;;
73515;SDS011;61763;51.416;5.442;2022-10-16T07:42:21;7.53;;;1.58;;
73515;SDS011;61763;51.416;5.442;2022-10-16T07:44:47;9.27;;;1.48;;
73515;SDS011;61763;51.416;5.442;2022-10-16T07:47:13;3.83;;;1.05;;
73515;SDS011;61763;51.416;5.442;2022-10-16T07:49:38;10.00;;;1.65;;
73515;SDS011;61763;51.416;5.442;2022-10-16T07:52:03;6.35;;;1.55;;
73515;SDS011;61763;51.416;5.442;2022-10-16T07:54:29;4.35;;;1.00;;
73515;SDS011;61763;51.416;5.442;2022-10-16T07:56:54;4.15;;;1.13;;
73515;SDS011;61763;51.416;5.442;2022-10-16T07:59:20;5.60;;;0.88;;
73515;SDS011;61763;51.416;5.442;2022-10-16T08:01:45;4.38;;;1.08;;
73515;SDS011;61763;51.416;5.442;2022-10-16T08:04:10;4.25;;;1.23;;
73515;SDS011;61763;51.416;5.442;2022-10-16T08:06:37;2.85;;;0.95;;
73515;SDS011;61763;51.416;5.442;2022-10-16T08:09:03;2.47;;;0.68;;
73515;SDS011;61763;51.416;5.442;2022-10-16T08:11:29;4.78;;;1.20;;
73515;SDS011;61763;51.416;5.442;2022-10-16T08:13:54;3.63;;;1.13;;
73515;SDS011;61763;51.416;5.442;2022-10-16T08:16:20;3.97;;;1.00;;
73515;SDS011;61763;51.416;5.442;2022-10-16T08:18:46;2.70;;;0.60;;
73515;SDS011;61763;51.416;5.442;2022-10-16T08:21:15;4.30;;;0.63;;
73515;SDS011;61763;51.416;5.442;2022-10-16T08:23:42;3.38;;;0.93;;
73515;SDS011;61763;51.416;5.442;2022-10-16T08:26:09;4.38;;;0.70;;
73515;SDS011;61763;51.416;5.442;2022-10-16T08:28:35;3.55;;;0.75;;
73515;SDS011;61763;51.416;5.442;2022-10-16T08:31:19;4.43;;;0.70;;
73515;SDS011;61763;51.416;5.442;2022-10-16T08:33:45;2.22;;;0.60;;
73515;SDS011;61763;51.416;5.442;2022-10-16T08:36:12;3.55;;;1.13;;
73515;SDS011;61763;51.416;5.442;2022-10-16T08:38:38;2.17;;;0.90;;
73515;SDS011;61763;51.416;5.442;2022-10-16T08:48:47;6.47;;;1.13;;
73515;SDS011;61763;51.416;5.442;2022-10-16T08:56:29;4.90;;;0.60;;
73515;SDS011;61763;51.416;5.442;2022-10-16T08:58:57;3.03;;;0.40;;
73515;SDS011;61763;51.416;5.442;2022-10-16T09:01:24;4.05;;;0.40;;
73515;SDS011;61763;51.416;5.442;2022-10-16T09:07:09;4.22;;;0.82;;
73515;SDS011;61763;51.416;5.442;2022-10-16T09:12:38;4.65;;;0.40;;
73515;SDS011;61763;51.416;5.442;2022-10-16T09:17:56;7.07;;;0.52;;
73515;SDS011;61763;51.416;5.442;2022-10-16T09:25:28;7.27;;;0.77;;
73515;SDS011;61763;51.416;5.442;2022-10-16T09:27:54;3.20;;;0.40;;
73515;SDS011;61763;51.416;5.442;2022-10-16T09:30:21;3.67;;;0.82;;
73515;SDS011;61763;51.416;5.442;2022-10-16T09:32:48;3.28;;;0.40;;
73515;SDS011;61763;51.416;5.442;2022-10-16T09:35:17;5.05;;;0.60;;
73515;SDS011;61763;51.416;5.442;2022-10-16T09:37:48;6.78;;;0.98;;
73515;SDS011;61763;51.416;5.442;2022-10-16T09:40:26;7.35;;;0.77;;
73515;SDS011;61763;51.416;5.442;2022-10-16T09:43:06;4.93;;;1.80;;
73515;SDS011;61763;51.416;5.442;2022-10-16T09:45:42;5.57;;;0.80;;
73515;SDS011;61763;51.416;5.442;2022-10-16T09:48:11;3.35;;;0.50;;
73515;SDS011;61763;51.416;5.442;2022-10-16T09:50:38;4.47;;;0.73;;
73515;SDS011;61763;51.416;5.442;2022-10-16T09:53:13;2.78;;;0.50;;
73515;SDS011;61763;51.416;5.442;2022-10-16T09:55:49;7.40;;;1.10;;
73515;SDS011;61763;51.416;5.442;2022-10-16T09:58:16;2.65;;;0.60;;
73515;SDS011;61763;51.416;5.442;2022-10-16T10:00:42;2.85;;;0.40;;
73515;SDS011;61763;51.416;5.442;2022-10-16T10:14:09;3.35;;;0.50;;
73515;SDS011;61763;51.416;5.442;2022-10-16T10:16:41;5.53;;;0.63;;
73515;SDS011;61763;51.416;5.442;2022-10-16T10:19:14;3.35;;;0.35;;
73515;SDS011;61763;51.416;5.442;2022-10-16T10:21:41;6.53;;;0.80;;
73515;SDS011;61763;51.416;5.442;2022-10-16T10:24:10;4.57;;;0.63;;
73515;SDS011;61763;51.416;5.442;2022-10-16T10:26:41;4.90;;;0.98;;
73515;SDS011;61763;51.416;5.442;2022-10-16T10:29:17;10.35;;;0.88;;
73515;SDS011;61763;51.416;5.442;2022-10-16T10:31:58;5.55;;;0.70;;
73515;SDS011;61763;51.416;5.442;2022-10-16T10:35:12;3.60;;;0.73;;
73515;SDS011;61763;51.416;5.442;2022-10-16T10:40:33;5.35;;;1.05;;
73515;SDS011;61763;51.416;5.442;2022-10-16T10:45:46;4.32;;;0.40;;
73515;SDS011;61763;51.416;5.442;2022-10-16T10:50:53;2.75;;;0.60;;
73515;SDS011;61763;51.416;5.442;2022-10-16T11:01:46;7.90;;;0.93;;
73515;SDS011;61763;51.416;5.442;2022-10-16T11:07:05;4.32;;;0.50;;
73515;SDS011;61763;51.416;5.442;2022-10-16T11:09:40;6.90;;;0.70;;
73515;SDS011;61763;51.416;5.442;2022-10-16T11:12:14;4.20;;;0.73;;
73515;SDS011;61763;51.416;5.442;2022-10-16T11:17:23;6.20;;;0.77;;
73515;SDS011;61763;51.416;5.442;2022-10-16T11:19:55;4.57;;;0.75;;
73515;SDS011;61763;51.416;5.442;2022-10-16T11:27:36;4.80;;;0.40;;
73515;SDS011;61763;51.416;5.442;2022-10-16T11:30:06;3.38;;;0.32;;
73515;SDS011;61763;51.416;5.442;2022-10-16T11:32:52;8.15;;;1.15;;
73515;SDS011;61763;51.416;5.442;2022-10-16T11:35:24;5.78;;;0.63;;
73515;SDS011;61763;51.416;5.442;2022-10-16T11:38:07;13.60;;;1.10;;
73515;SDS011;61763;51.416;5.442;2022-10-16T11:40:39;5.00;;;0.32;;
73515;SDS011;61763;51.416;5.442;2022-10-16T11:43:21;6.50;;;1.10;;
73515;SDS011;61763;51.416;5.442;2022-10-16T11:45:52;7.05;;;0.77;;
73515;SDS011;61763;51.416;5.442;2022-10-16T11:48:25;6.40;;;1.02;;
73515;SDS011;61763;51.416;5.442;2022-10-16T11:51:09;5.45;;;1.15;;
73515;SDS011;61763;51.416;5.442;2022-10-16T11:56:35;3.83;;;0.40;;
73515;SDS011;61763;51.416;5.442;2022-10-16T11:59:17;5.75;;;1.58;;
73515;SDS011;61763;51.416;5.442;2022-10-16T12:02:08;6.38;;;1.02;;
73515;SDS011;61763;51.416;5.442;2022-10-16T12:04:45;3.08;;;0.25;;
73515;SDS011;61763;51.416;5.442;2022-10-16T12:07:17;4.32;;;0.70;;
73515;SDS011;61763;51.416;5.442;2022-10-16T12:09:48;4.50;;;0.50;;
73515;SDS011;61763;51.416;5.442;2022-10-16T12:12:24;6.93;;;0.77;;
73515;SDS011;61763;51.416;5.442;2022-10-16T12:14:59;4.22;;;0.43;;
73515;SDS011;61763;51.416;5.442;2022-10-16T12:17:35;4.50;;;0.88;;
73515;SDS011;61763;51.416;5.442;2022-10-16T12:22:40;3.25;;;0.50;;
73515;SDS011;61763;51.416;5.442;2022-10-16T12:25:22;6.18;;;0.82;;
73515;SDS011;61763;51.416;5.442;2022-10-16T12:27:59;6.32;;;0.82;;
73515;SDS011;61763;51.416;5.442;2022-10-16T12:30:31;3.25;;;0.65;;
73515;SDS011;61763;51.416;5.442;2022-10-16T12:33:21;7.35;;;1.05;;
73515;SDS011;61763;51.416;5.442;2022-10-16T12:35:45;4.78;;;0.70;;
73515;SDS011;61763;51.416;5.442;2022-10-16T12:38:18;4.32;;;0.55;;
73515;SDS011;61763;51.416;5.442;2022-10-16T12:48:47;4.63;;;0.75;;
73515;SDS011;61763;51.416;5.442;2022-10-16T12:53:58;4.18;;;0.60;;
73515;SDS011;61763;51.416;5.442;2022-10-16T12:56:27;5.25;;;0.70;;
73515;SDS011;61763;51.416;5.442;2022-10-16T12:59:24;2.88;;;0.50;;
73515;SDS011;61763;51.416;5.442;2022-10-16T13:07:56;4.80;;;0.82;;
73515;SDS011;61763;51.416;5.442;2022-10-16T13:10:26;3.67;;;0.55;;
73515;SDS011;61763;51.416;5.442;2022-10-16T13:21:32;3.90;;;0.52;;
73515;SDS011;61763;51.416;5.442;2022-10-16T13:24:58;3.28;;;0.43;;
73515;SDS011;61763;51.416;5.442;2022-10-16T13:30:13;5.00;;;0.52;;
73515;SDS011;61763;51.416;5.442;2022-10-16T13:32:44;6.25;;;1.33;;
73515;SDS011;61763;51.416;5.442;2022-10-16T13:35:25;4.22;;;0.65;;
73515;SDS011;61763;51.416;5.442;2022-10-16T13:38:10;4.60;;;0.75;;
73515;SDS011;61763;51.416;5.442;2022-10-16T13:43:13;4.60;;;1.02;;
73515;SDS011;61763;51.416;5.442;2022-10-16T13:45:39;3.08;;;0.40;;
73515;SDS011;61763;51.416;5.442;2022-10-16T13:48:05;4.78;;;0.50;;
73515;SDS011;61763;51.416;5.442;2022-10-16T13:50:31;3.35;;;0.73;;
73515;SDS011;61763;51.416;5.442;2022-10-16T13:53:06;6.28;;;0.88;;
73515;SDS011;61763;51.416;5.442;2022-10-16T13:55:37;5.25;;;0.82;;
73515;SDS011;61763;51.416;5.442;2022-10-16T13:58:13;4.38;;;0.50;;
73515;SDS011;61763;51.416;5.442;2022-10-16T14:00:39;3.35;;;0.70;;
73515;SDS011;61763;51.416;5.442;2022-10-16T14:03:17;3.67;;;0.40;;
73515;SDS011;61763;51.416;5.442;2022-10-16T14:05:55;3.53;;;0.63;;
73515;SDS011;61763;51.416;5.442;2022-10-16T14:08:24;3.85;;;0.63;;
73515;SDS011;61763;51.416;5.442;2022-10-16T14:10:53;5.03;;;0.70;;
73515;SDS011;61763;51.416;5.442;2022-10-16T14:13:26;4.15;;;0.60;;
73515;SDS011;61763;51.416;5.442;2022-10-16T14:16:10;5.68;;;0.73;;
73515;SDS011;61763;51.416;5.442;2022-10-16T14:18:40;2.17;;;0.52;;
73515;SDS011;61763;51.416;5.442;2022-10-16T14:21:06;3.80;;;0.55;;
73515;SDS011;61763;51.416;5.442;2022-10-16T14:23:41;3.83;;;0.38;;
73515;SDS011;61763;51.416;5.442;2022-10-16T14:28:38;4.82;;;1.20;;
73515;SDS011;61763;51.416;5.442;2022-10-16T14:33:44;1.92;;;0.82;;
73515;SDS011;61763;51.416;5.442;2022-10-16T14:38:38;4.10;;;1.00;;
73515;SDS011;61763;51.416;5.442;2022-10-16T14:41:05;4.32;;;0.47;;
73515;SDS011;61763;51.416;5.442;2022-10-16T14:45:59;4.95;;;0.60;;
73515;SDS011;61763;51.416;5.442;2022-10-16T14:48:27;2.58;;;0.30;;
73515;SDS011;61763;51.416;5.442;2022-10-16T14:50:53;5.18;;;0.43;;
73515;SDS011;61763;51.416;5.442;2022-10-16T14:53:18;2.42;;;0.30;;
73515;SDS011;61763;51.416;5.442;2022-10-16T14:55:44;5.88;;;0.82;;
73515;SDS011;61763;51.416;5.442;2022-10-16T14:58:16;4.00;;;0.60;;
73515;SDS011;61763;51.416;5.442;2022-10-16T15:00:44;1.77;;;0.45;;
73515;SDS011;61763;51.416;5.442;2022-10-16T15:03:10;1.73;;;0.50;;
73515;SDS011;61763;51.416;5.442;2022-10-16T15:05:36;3.15;;;0.95;;
73515;SDS011;61763;51.416;5.442;2022-10-16T15:08:01;6.03;;;0.90;;
73515;SDS011;61763;51.416;5.442;2022-10-16T15:10:27;4.50;;;0.68;;
73515;SDS011;61763;51.416;5.442;2022-10-16T15:12:54;2.63;;;0.57;;
73515;SDS011;61763;51.416;5.442;2022-10-16T15:17:52;3.35;;;0.73;;
73515;SDS011;61763;51.416;5.442;2022-10-16T15:20:21;4.07;;;1.08;;
73515;SDS011;61763;51.416;5.442;2022-10-16T15:27:57;3.67;;;0.32;;
73515;SDS011;61763;51.416;5.442;2022-10-16T15:30:24;1.90;;;0.30;;
73515;SDS011;61763;51.416;5.442;2022-10-16T15:32:49;3.00;;;0.38;;
73515;SDS011;61763;51.416;5.442;2022-10-16T15:35:15;4.45;;;0.63;;
73515;SDS011;61763;51.416;5.442;2022-10-16T15:37:40;3.80;;;0.63;;
73515;SDS011;61763;51.416;5.442;2022-10-16T15:40:05;6.30;;;1.40;;
73515;SDS011;61763;51.416;5.442;2022-10-16T15:42:31;4.13;;;1.13;;
73515;SDS011;61763;51.416;5.442;2022-10-16T15:44:56;5.20;;;1.08;;
73515;SDS011;61763;51.416;5.442;2022-10-16T15:47:22;3.30;;;0.70;;
73515;SDS011;61763;51.416;5.442;2022-10-16T15:49:47;3.75;;;0.60;;
73515;SDS011;61763;51.416;5.442;2022-10-16T15:52:13;2.95;;;0.98;;
73515;SDS011;61763;51.416;5.442;2022-10-16T15:54:38;3.47;;;0.57;;
73515;SDS011;61763;51.416;5.442;2022-10-16T15:57:03;3.50;;;1.20;;
73515;SDS011;61763;51.416;5.442;2022-10-16T15:59:29;5.85;;;2.60;;
73515;SDS011;61763;51.416;5.442;2022-10-16T16:01:55;6.10;;;3.30;;
73515;SDS011;61763;51.416;5.442;2022-10-16T16:04:20;5.57;;;1.85;;
73515;SDS011;61763;51.416;5.442;2022-10-16T16:06:46;2.88;;;0.70;;
73515;SDS011;61763;51.416;5.442;2022-10-16T16:09:11;3.28;;;0.90;;
73515;SDS011;61763;51.416;5.442;2022-10-16T16:14:04;3.40;;;1.52;;
73515;SDS011;61763;51.416;5.442;2022-10-16T16:16:36;3.35;;;1.55;;
73515;SDS011;61763;51.416;5.442;2022-10-16T16:19:06;6.55;;;1.27;;
73515;SDS011;61763;51.416;5.442;2022-10-16T16:21:32;4.28;;;0.70;;
73515;SDS011;61763;51.416;5.442;2022-10-16T16:23:58;4.22;;;1.40;;
73515;SDS011;61763;51.416;5.442;2022-10-16T16:26:25;5.47;;;0.82;;
73515;SDS011;61763;51.416;5.442;2022-10-16T16:28:58;4.97;;;1.35;;
73515;SDS011;61763;51.416;5.442;2022-10-16T16:31:25;4.75;;;0.95;;
73515;SDS011;61763;51.416;5.442;2022-10-16T16:33:51;4.32;;;0.90;;
73515;SDS011;61763;51.416;5.442;2022-10-16T16:36:17;4.82;;;0.60;;
73515;SDS011;61763;51.416;5.442;2022-10-16T16:38:43;3.30;;;0.82;;
73515;SDS011;61763;51.416;5.442;2022-10-16T16:41:16;3.53;;;1.02;;
73515;SDS011;61763;51.416;5.442;2022-10-16T16:43:43;2.80;;;0.90;;
73515;SDS011;61763;51.416;5.442;2022-10-16T16:46:09;3.15;;;0.70;;
73515;SDS011;61763;51.416;5.442;2022-10-16T16:48:35;5.05;;;0.98;;
73515;SDS011;61763;51.416;5.442;2022-10-16T16:51:18;4.18;;;0.60;;
73515;SDS011;61763;51.416;5.442;2022-10-16T16:53:49;3.45;;;0.70;;
73515;SDS011;61763;51.416;5.442;2022-10-16T16:56:16;3.13;;;0.82;;
73515;SDS011;61763;51.416;5.442;2022-10-16T16:58:44;5.88;;;1.17;;
73515;SDS011;61763;51.416;5.442;2022-10-16T17:01:11;2.20;;;0.73;;
73515;SDS011;61763;51.416;5.442;2022-10-16T17:03:36;3.88;;;0.80;;
73515;SDS011;61763;51.416;5.442;2022-10-16T17:06:03;3.60;;;0.70;;
73515;SDS011;61763;51.416;5.442;2022-10-16T17:08:30;3.13;;;0.60;;
73515;SDS011;61763;51.416;5.442;2022-10-16T17:10:56;3.03;;;1.10;;
73515;SDS011;61763;51.416;5.442;2022-10-16T17:13:23;4.35;;;1.00;;
73515;SDS011;61763;51.416;5.442;2022-10-16T17:15:49;3.63;;;1.08;;
73515;SDS011;61763;51.416;5.442;2022-10-16T17:18:16;2.15;;;0.98;;
73515;SDS011;61763;51.416;5.442;2022-10-16T17:20:42;6.45;;;0.75;;